createdAt,value
2023-04-07T00:07:04.825Z,14.50
2023-04-07T00:22:09.264Z,14.30
2023-04-07T00:37:13.684Z,14.10
2023-04-07T00:52:19.868Z,14.50
2023-04-07T01:07:28.704Z,14.80
2023-04-07T01:22:48.559Z,14.90
2023-04-07T01:37:54.334Z,14.40
2023-04-07T01:52:59.241Z,14.40
2023-04-07T02:08:07.093Z,14.10
2023-04-07T02:23:14.597Z,14.60
2023-04-07T02:38:19.426Z,13.30
2023-04-07T02:53:23.947Z,13.80
2023-04-07T03:08:28.629Z,13.90
2023-04-07T03:23:34.114Z,13.50
2023-04-07T03:38:38.590Z,13.70
2023-04-07T03:53:43.120Z,13.00
2023-04-07T04:09:00.297Z,13.40
2023-04-07T04:24:05.085Z,13.20
2023-04-07T04:39:09.679Z,12.30
2023-04-07T04:54:17.304Z,12.90
2023-04-07T05:09:23.147Z,12.90
2023-04-07T05:24:29.589Z,12.60
2023-04-07T05:39:37.532Z,13.20
2023-04-07T05:54:46.108Z,12.40
2023-04-07T06:09:52.808Z,12.00
2023-04-07T06:24:57.395Z,12.10
2023-04-07T06:40:02.258Z,12.70
2023-04-07T06:55:07.886Z,12.90
2023-04-07T07:10:12.634Z,12.20
2023-04-07T07:25:17.257Z,12.40
2023-04-07T07:40:22.060Z,12.10
2023-04-07T07:55:26.524Z,12.10
2023-04-07T08:10:31.151Z,12.70
2023-04-07T08:25:36.380Z,12.40
2023-04-07T08:40:40.897Z,13.20
2023-04-07T08:55:45.472Z,13.30
2023-04-07T09:10:49.958Z,13.60
2023-04-07T09:25:54.449Z,14.00
2023-04-07T09:41:07.798Z,14.20
2023-04-07T09:56:12.989Z,14.60
2023-04-07T10:11:18.059Z,15.20
2023-04-07T10:26:27.569Z,14.70
2023-04-07T10:41:36.900Z,14.70
2023-04-07T10:57:10.494Z,15.00
2023-04-07T11:12:25.125Z,15.30
2023-04-07T11:27:30.696Z,15.20
2023-04-07T11:42:36.244Z,15.40
2023-04-07T11:57:40.811Z,16.70
2023-04-07T12:12:47.268Z,16.70
2023-04-07T12:27:52.089Z,16.50
2023-04-07T12:42:58.263Z,17.40
2023-04-07T12:58:03.127Z,17.10
2023-04-07T13:13:07.535Z,17.60
2023-04-07T13:28:12.271Z,17.50
2023-04-07T13:43:18.559Z,18.30
2023-04-07T13:58:23.040Z,18.60
2023-04-07T14:13:27.521Z,19.00
2023-04-07T14:28:31.995Z,19.10
2023-04-07T14:43:36.617Z,23.10
2023-04-07T14:58:41.348Z,21.10
2023-04-07T15:13:46.266Z,26.00
2023-04-07T15:28:50.857Z,21.30
2023-04-07T15:43:55.560Z,19.70
2023-04-07T15:58:59.993Z,21.30
2023-04-07T16:14:04.360Z,21.50
2023-04-07T16:29:08.778Z,20.10
2023-04-07T16:44:13.284Z,20.30
2023-04-07T16:59:17.939Z,20.90
2023-04-07T17:14:23.360Z,20.90
2023-04-07T17:29:29.164Z,21.50
2023-04-07T17:44:34.132Z,20.90
2023-04-07T17:59:38.597Z,20.40
2023-04-07T18:14:43.086Z,19.20
2023-04-07T18:29:47.634Z,18.40
2023-04-07T18:44:52.109Z,17.80
2023-04-07T18:59:56.893Z,17.80
2023-04-07T19:15:01.427Z,17.70
2023-04-07T19:30:07.045Z,17.40
2023-04-07T19:45:12.805Z,17.30
2023-04-07T20:00:18.284Z,17.20
2023-04-07T20:15:25.744Z,17.10
2023-04-07T20:30:30.486Z,16.70
2023-04-07T20:45:39.450Z,16.40
2023-04-07T21:00:44.294Z,16.00
2023-04-07T21:15:49.062Z,16.20
2023-04-07T21:30:55.778Z,16.40
2023-04-07T21:46:00.476Z,16.40
2023-04-07T22:01:05.069Z,16.10
2023-04-07T22:16:09.762Z,16.00
2023-04-07T22:31:14.424Z,15.90
2023-04-07T22:46:19.041Z,15.90
2023-04-07T23:01:23.598Z,15.70
2023-04-07T23:16:28.230Z,15.80
2023-04-07T23:31:36.153Z,15.50
2023-04-07T23:46:40.606Z,15.30
